Time;durP1;ratioP1;P1;durP2;ratioP2;P2;SDS_P1;SDS_P2;PMS_P1;PMS_P2;Temp;Humidity;BMP_temperature;BMP_pressure;BME280_temperature;BME280_humidity;BME280_pressure;Samples;Min_cycle;Max_cycle;Signal;HPM_P1;HPM_P2
2021/05/23 00:00:28;;;;;;;0.65;0.65;;;;;;;7.57;93.67;100515.70;1704930;84;21069;-42
2021/05/23 00:02:57;;;;;;;0.08;0.08;;;;;;;7.56;93.69;100513.23;1705067;84;21002;-44
2021/05/23 00:05:25;;;;;;;0.10;0.10;;;;;;;7.53;93.70;100520.01;1705166;84;21724;-44
2021/05/23 00:07:59;;;;;;;0.15;0.15;;;;;;;7.51;93.77;100520.25;1678767;84;22065;-44
2021/05/23 00:10:27;;;;;;;0.17;0.17;;;;;;;7.47;93.79;100515.07;1688859;84;21065;-42
2021/05/23 00:12:55;;;;;;;0.28;0.28;;;;;;;7.43;93.82;100515.29;1676600;85;21612;-44
2021/05/23 00:15:29;;;;;;;0.37;0.37;;;;;;;7.41;93.94;100514.72;1676377;84;21703;-42
2021/05/23 00:17:55;;;;;;;1.17;0.65;;;;;;;7.38;94.08;100514.42;1673128;84;21037;-44
2021/05/23 00:20:22;;;;;;;1.25;0.75;;;;;;;7.34;94.19;100515.46;1689508;84;21197;-42
2021/05/23 00:22:49;;;;;;;0.28;0.28;;;;;;;7.31;94.29;100515.98;1689564;83;21686;-40
2021/05/23 00:25:18;;;;;;;0.30;0.30;;;;;;;7.28;94.45;100514.59;1689594;84;21022;-44
2021/05/23 00:27:45;;;;;;;0.10;0.10;;;;;;;7.27;94.57;100524.35;1688991;84;21105;-41
2021/05/23 00:30:13;;;;;;;0.10;0.10;;;;;;;7.25;94.68;100515.66;1689394;84;21071;-41
2021/05/23 00:32:39;;;;;;;3.00;0.30;;;;;;;7.22;94.82;100522.42;1689646;84;21571;-41
2021/05/23 00:35:07;;;;;;;0.62;0.62;;;;;;;7.21;94.91;100525.39;1689580;84;21070;-43
2021/05/23 00:37:33;;;;;;;0.10;0.10;;;;;;;7.20;95.08;100528.66;1662217;83;21035;-40
2021/05/23 00:40:00;;;;;;;0.35;0.35;;;;;;;7.20;95.13;100530.02;1661544;84;21091;-44
2021/05/23 00:42:26;;;;;;;0.20;0.20;;;;;;;7.19;95.30;100519.38;1661602;86;21096;-41
2021/05/23 00:44:53;;;;;;;0.10;0.10;;;;;;;7.18;95.50;100507.70;1668832;84;21051;-44
2021/05/23 00:47:21;;;;;;;0.72;0.72;;;;;;;7.18;95.59;100504.98;1689657;83;21684;-41
2021/05/23 00:49:48;;;;;;;0.70;0.70;;;;;;;7.18;95.66;100497.38;1689525;84;21104;-44
2021/05/23 00:52:14;;;;;;;5.60;0.40;;;;;;;7.17;95.75;100499.27;1689382;83;21016;-40
2021/05/23 00:54:40;;;;;;;1.17;0.82;;;;;;;7.16;95.78;100501.69;1676950;84;21383;-44
2021/05/23 00:57:07;;;;;;;0.65;0.65;;;;;;;7.15;95.83;100506.86;1689358;84;21565;-44
2021/05/23 00:59:33;;;;;;;0.10;0.10;;;;;;;7.16;95.96;100504.95;1689586;84;21115;-44
2021/05/23 01:02:08;;;;;;;0.20;0.20;;;;;;;7.14;95.98;100503.84;1689173;84;21119;-43
2021/05/23 01:04:35;;;;;;;0.40;0.30;;;;;;;7.10;96.01;100497.29;1684843;84;21042;-41
2021/05/23 01:07:01;;;;;;;1.17;0.47;;;;;;;7.05;96.11;100498.59;1669741;83;21038;-41
2021/05/23 01:09:30;;;;;;;0.95;0.93;;;;;;;7.03;96.37;100493.95;1660538;84;21095;-41
2021/05/23 01:12:27;;;;;;;1.17;0.93;;;;;;;7.01;96.64;100491.47;1685163;84;21664;-41
2021/05/23 01:14:57;;;;;;;0.10;0.10;;;;;;;7.02;96.88;100492.28;1636352;86;21056;-44
2021/05/23 01:17:37;;;;;;;0.10;0.10;;;;;;;7.04;97.28;100490.14;1677595;84;21023;-41
2021/05/23 01:20:18;;;;;;;0.30;0.30;;;;;;;7.08;97.59;100494.00;1752249;80;21071;-40
2021/05/23 01:22:53;;;;;;;1.00;0.53;;;;;;;7.15;97.96;100489.19;1736542;81;20999;-43
2021/05/23 01:25:22;;;;;;;0.75;0.40;;;;;;;7.22;98.05;100492.53;1735087;82;21298;-40
2021/05/23 01:27:51;;;;;;;0.10;0.10;;;;;;;7.28;98.28;100481.16;1739031;81;21604;-44
2021/05/23 01:30:27;;;;;;;1.07;0.68;;;;;;;7.33;98.50;100469.80;1720266;81;21035;-43
2021/05/23 01:32:58;;;;;;;0.23;0.23;;;;;;;7.41;98.86;100470.41;1700029;83;21063;-44
2021/05/23 01:35:36;;;;;;;0.47;0.30;;;;;;;7.51;99.27;100475.39;1720473;82;21067;-40
2021/05/23 01:38:03;;;;;;;0.10;0.10;;;;;;;7.65;99.50;100477.16;1747179;81;21561;-44
2021/05/23 01:40:34;;;;;;;0.37;0.37;;;;;;;7.81;99.45;100478.08;1750480;80;21577;-42
2021/05/23 01:43:00;;;;;;;1.92;0.30;;;;;;;7.93;99.34;100477.36;1727335;81;21024;-44
2021/05/23 01:45:32;;;;;;;0.65;0.65;;;;;;;8.06;99.34;100474.75;1728044;81;21004;-40
2021/05/23 01:47:59;;;;;;;0.20;0.20;;;;;;;8.16;99.46;100472.09;1749710;81;21027;-44
2021/05/23 01:50:26;;;;;;;1.55;0.57;;;;;;;8.25;99.55;100483.29;1735132;82;21058;-44
2021/05/23 01:52:59;;;;;;;0.37;0.37;;;;;;;8.35;99.61;100483.89;1735090;82;21047;-40
2021/05/23 01:55:25;;;;;;;0.23;0.15;;;;;;;8.45;99.54;100482.62;1739745;81;21071;-45
2021/05/23 01:57:52;;;;;;;0.00;0.00;;;;;;;8.55;99.38;100484.57;1744808;81;21046;-40
2021/05/23 02:00:22;;;;;;;0.45;0.45;;;;;;;8.69;99.27;100488.45;1735266;81;21026;-44
2021/05/23 02:02:48;;;;;;;0.42;0.42;;;;;;;8.87;99.10;100492.61;1727598;83;21046;-44
2021/05/23 02:05:15;;;;;;;1.05;0.70;;;;;;;9.04;98.82;100485.03;1726566;83;21054;-40
2021/05/23 02:07:41;;;;;;;0.00;0.00;;;;;;;9.20;98.50;100489.19;1678716;84;21667;-41
2021/05/23 02:10:11;;;;;;;1.47;0.37;;;;;;;9.37;98.04;100495.22;1705106;84;21590;-40
2021/05/23 02:12:39;;;;;;;0.72;0.68;;;;;;;9.54;97.47;100498.23;1704880;84;21044;-42
2021/05/23 02:15:07;;;;;;;0.35;0.35;;;;;;;9.72;96.86;100490.05;1704760;84;21062;-45
2021/05/23 02:17:39;;;;;;;0.72;0.40;;;;;;;9.87;96.13;100494.97;1669211;85;21593;-41
2021/05/23 02:20:13;;;;;;;0.35;0.35;;;;;;;10.05;95.42;100498.23;1661619;84;21059;-45
2021/05/23 02:22:41;;;;;;;0.20;0.20;;;;;;;10.21;94.74;100495.77;1661379;86;21541;-41
2021/05/23 02:25:09;;;;;;;0.13;0.13;;;;;;;10.37;93.97;100487.57;1673045;84;21612;-44
2021/05/23 02:27:42;;;;;;;0.30;0.30;;;;;;;10.53;93.11;100493.24;1689401;84;21044;-41
2021/05/23 02:30:13;;;;;;;;;;;;;;;10.71;92.26;100491.84;1691803;84;21161;-41
2021/05/23 02:32:39;;;;;;;0.20;0.20;;;;;;;10.88;91.28;100495.05;1688602;84;20249;-45
2021/05/23 02:35:07;;;;;;;0.40;0.40;;;;;;;11.01;90.47;100492.80;1689147;84;21594;-40
2021/05/23 02:37:33;;;;;;;0.60;0.20;;;;;;;11.13;89.73;100500.94;1689519;84;21061;-45
2021/05/23 02:40:06;;;;;;;1.17;0.30;;;;;;;11.25;89.02;100498.39;1689432;84;21089;-41
2021/05/23 02:42:33;;;;;;;2.20;0.90;;;;;;;11.36;88.24;100494.51;1689161;84;21117;-45
2021/05/23 02:45:00;;;;;;;0.30;0.30;;;;;;;11.45;87.67;100492.81;1689416;83;21055;-42
2021/05/23 02:47:27;;;;;;;0.55;0.20;;;;;;;11.52;87.11;100496.05;1689428;84;21644;-41
2021/05/23 02:49:53;;;;;;;0.37;0.37;;;;;;;11.61;86.33;100499.80;1689463;84;21111;-45
2021/05/23 02:52:20;;;;;;;0.17;0.17;;;;;;;11.71;85.59;100499.46;1688544;84;21707;-45
2021/05/23 02:54:47;;;;;;;0.60;0.60;;;;;;;11.83;84.66;100505.39;1688933;84;21580;-41
2021/05/23 02:57:13;;;;;;;0.53;0.50;;;;;;;11.94;83.88;100503.40;1689066;84;21024;-45
2021/05/23 02:59:39;;;;;;;2.00;0.68;;;;;;;12.05;83.14;100507.14;1688956;84;21075;-45
2021/05/23 03:02:06;;;;;;;0.30;0.30;;;;;;;12.17;82.38;100510.88;1688747;84;21133;-43
2021/05/23 03:04:32;;;;;;;0.10;0.10;;;;;;;12.25;81.72;100508.86;1688727;84;21080;-44
2021/05/23 03:06:59;;;;;;;0.00;0.00;;;;;;;12.35;80.90;100506.58;1689376;83;21059;-43
2021/05/23 03:09:26;;;;;;;0.60;0.30;;;;;;;12.45;80.29;100516.06;1689495;84;21056;-45
2021/05/23 03:11:52;;;;;;;0.20;0.20;;;;;;;12.54;79.67;100516.25;1689145;84;21112;-41
2021/05/23 03:14:19;;;;;;;0.70;0.70;;;;;;;12.62;79.18;100510.69;1689258;84;21056;-41
2021/05/23 03:16:47;;;;;;;0.30;0.30;;;;;;;12.68;78.97;100525.42;1689455;84;21064;-45
2021/05/23 03:19:13;;;;;;;0.50;0.33;;;;;;;12.69;78.84;100526.23;1688937;84;21012;-41
2021/05/23 03:21:41;;;;;;;0.20;0.20;;;;;;;12.63;78.65;100523.27;1689238;83;21612;-45
2021/05/23 03:24:09;;;;;;;0.88;0.88;;;;;;;12.53;78.46;100523.39;1689466;84;21083;-46
2021/05/23 03:26:37;;;;;;;0.35;0.35;;;;;;;12.42;78.51;100530.91;1689615;83;21024;-45
2021/05/23 03:29:03;;;;;;;0.47;0.37;;;;;;;12.31;78.59;100528.80;1689511;84;21105;-45
2021/05/23 03:31:30;;;;;;;0.33;0.33;;;;;;;12.24;78.82;100524.24;1689235;83;21675;-44
2021/05/23 03:33:57;;;;;;;0.30;0.25;;;;;;;12.19;78.97;100525.63;1707129;83;21031;-41
2021/05/23 03:36:23;;;;;;;0.78;0.60;;;;;;;12.15;79.25;100519.92;1687560;83;21116;-41
2021/05/23 03:38:50;;;;;;;0.10;0.10;;;;;;;12.14;79.46;100522.94;1686226;84;21035;-45
2021/05/23 03:41:17;;;;;;;1.47;0.60;;;;;;;12.13;79.74;100519.39;1688979;84;21063;-45
2021/05/23 03:43:43;;;;;;;0.30;0.30;;;;;;;12.13;80.25;100510.36;1663953;85;21018;-45
2021/05/23 03:46:10;;;;;;;0.15;0.15;;;;;;;12.13;80.82;100515.84;1664114;85;21112;-41
2021/05/23 03:48:38;;;;;;;1.95;0.35;;;;;;;12.12;81.23;100517.77;1666338;86;21094;-45
2021/05/23 03:51:05;;;;;;;0.57;0.30;;;;;;;12.12;81.73;100527.91;1677152;85;21564;-45
2021/05/23 03:53:31;;;;;;;0.10;0.10;;;;;;;12.11;82.05;100518.05;1684079;84;21036;-42
2021/05/23 03:55:57;;;;;;;0.47;0.47;;;;;;;12.12;82.25;100522.44;1688538;84;21118;-41
2021/05/23 03:58:24;;;;;;;0.37;0.37;;;;;;;12.13;82.25;100525.42;1689392;84;21658;-45
2021/05/23 04:00:51;;;;;;;0.23;0.23;;;;;;;12.13;82.39;100530.34;1675363;84;21110;-45
2021/05/23 04:03:17;;;;;;;3.00;0.40;;;;;;;12.13;82.73;100530.91;1680297;84;21043;-45
2021/05/23 04:05:44;;;;;;;0.23;0.23;;;;;;;12.14;83.07;100532.00;1704691;83;21057;-41
2021/05/23 04:08:11;;;;;;;1.30;0.53;;;;;;;12.16;83.18;100527.58;1673714;84;21035;-41
2021/05/23 04:10:46;;;;;;;1.50;1.02;;;;;;;12.20;83.32;100527.28;1673786;84;21118;-41
2021/05/23 04:13:08;;;;;;;1.70;0.23;;;;;;;12.26;83.34;100527.48;1696840;82;21065;-40
2021/05/23 04:15:34;;;;;;;1.07;0.40;;;;;;;12.32;83.43;100531.02;1707107;84;21055;-45
2021/05/23 04:18:00;;;;;;;0.68;0.68;;;;;;;12.40;83.39;100538.59;1689439;84;21461;-41
2021/05/23 04:20:28;;;;;;;1.65;0.80;;;;;;;12.45;83.30;100537.98;1689548;84;21127;-45
2021/05/23 04:22:55;;;;;;;0.47;0.47;;;;;;;12.50;83.20;100538.48;1689024;84;21087;-43
2021/05/23 04:25:22;;;;;;;0.53;0.45;;;;;;;12.56;83.12;100548.84;1689417;83;21185;-45
2021/05/23 04:27:49;;;;;;;0.68;0.40;;;;;;;12.60;83.13;100553.45;1707094;83;21035;-41
2021/05/23 04:30:21;;;;;;;0.40;0.40;;;;;;;12.66;83.12;100554.20;1686347;84;21048;-45
2021/05/23 04:32:48;;;;;;;0.47;0.47;;;;;;;12.74;83.05;100555.52;1688875;84;21111;-42
2021/05/23 04:35:15;;;;;;;1.52;0.60;;;;;;;12.83;82.92;100548.27;1689059;83;21099;-40
2021/05/23 04:37:43;;;;;;;0.75;0.68;;;;;;;12.94;82.61;100551.16;1688434;83;21143;-41
2021/05/23 04:40:10;;;;;;;0.42;0.30;;;;;;;13.08;82.27;100555.37;1688941;84;21023;-45
2021/05/23 04:42:37;;;;;;;0.00;0.00;;;;;;;13.21;81.82;100549.18;1700530;83;21051;-41
2021/05/23 04:45:05;;;;;;;0.20;0.20;;;;;;;13.33;81.34;100542.73;1689128;83;21626;-45
2021/05/23 04:47:33;;;;;;;1.00;0.90;;;;;;;13.47;80.95;100546.11;1689288;83;21692;-41
2021/05/23 04:49:59;;;;;;;0.30;0.30;;;;;;;13.59;80.61;100551.16;1689276;84;21050;-41
2021/05/23 04:52:25;;;;;;;0.40;0.40;;;;;;;13.71;80.31;100555.09;1688528;84;21712;-45
2021/05/23 04:54:52;;;;;;;0.30;0.30;;;;;;;13.83;80.20;100550.52;1682945;84;21051;-41
2021/05/23 04:57:18;;;;;;;0.42;0.20;;;;;;;13.93;79.75;100553.66;1687088;84;21604;-45
2021/05/23 04:59:47;;;;;;;0.45;0.40;;;;;;;14.05;79.49;100558.70;1687415;84;21432;-41
2021/05/23 05:02:13;;;;;;;2.37;0.40;;;;;;;14.16;79.22;100553.28;1689419;83;21110;-42
2021/05/23 05:04:40;;;;;;;0.50;0.50;;;;;;;14.28;78.83;100559.68;1690131;84;21111;-42
2021/05/23 05:07:06;;;;;;;0.37;0.37;;;;;;;14.40;78.57;100552.58;1666679;85;21087;-41
2021/05/23 05:09:33;;;;;;;0.20;0.20;;;;;;;14.55;78.26;100556.20;1684226;84;21624;-41
2021/05/23 05:12:00;;;;;;;0.57;0.42;;;;;;;14.70;77.95;100544.91;1687633;84;21569;-45
2021/05/23 05:14:26;;;;;;;0.30;0.30;;;;;;;14.86;78.52;100539.94;1700513;83;21092;-41
2021/05/23 05:16:53;;;;;;;0.23;0.23;;;;;;;14.98;78.01;100549.84;1702631;84;21028;-45
2021/05/23 05:19:20;;;;;;;0.65;0.28;;;;;;;15.09;77.19;100540.83;1688891;84;21684;-41
2021/05/23 05:21:46;;;;;;;0.37;0.37;;;;;;;15.22;76.41;100550.19;1688723;84;21076;-45
2021/05/23 05:24:13;;;;;;;0.10;0.10;;;;;;;15.44;76.36;100560.45;1688898;84;21043;-45
2021/05/23 05:26:39;;;;;;;0.25;0.25;;;;;;;15.72;76.12;100563.97;1666534;84;21112;-45
2021/05/23 05:29:06;;;;;;;0.95;0.55;;;;;;;16.08;75.41;100565.87;1693310;84;21065;-40
2021/05/23 05:31:33;;;;;;;0.30;0.30;;;;;;;16.48;74.79;100568.72;1693838;83;21592;-41
2021/05/23 05:33:59;;;;;;;0.40;0.40;;;;;;;16.90;73.38;100562.37;1688575;84;21094;-45
2021/05/23 05:36:26;;;;;;;0.70;0.40;;;;;;;17.25;71.27;100552.80;1687145;84;21067;-42
2021/05/23 05:38:53;;;;;;;0.33;0.33;;;;;;;17.49;69.04;100544.88;1674210;84;21102;-43
2021/05/23 05:41:20;;;;;;;0.50;0.50;;;;;;;17.69;67.76;100545.39;1701288;84;21100;-41
2021/05/23 05:43:49;;;;;;;0.30;0.30;;;;;;;17.86;66.89;100555.66;1678902;84;21126;-45
2021/05/23 05:46:16;;;;;;;0.37;0.37;;;;;;;18.01;66.43;100561.49;1681124;84;21663;-43
2021/05/23 05:48:43;;;;;;;0.40;0.40;;;;;;;18.15;65.80;100564.64;1704020;84;21482;-41
2021/05/23 05:51:11;;;;;;;0.72;0.50;;;;;;;18.25;64.96;100565.70;1674718;84;21082;-45
2021/05/23 05:53:39;;;;;;;0.30;0.30;;;;;;;18.31;64.04;100564.38;1683112;84;21621;-45
2021/05/23 05:56:06;;;;;;;0.45;0.40;;;;;;;18.30;63.31;100561.93;1688075;84;21075;-42
2021/05/23 05:58:32;;;;;;;0.13;0.13;;;;;;;18.28;63.97;100562.27;1683331;84;21008;-45
2021/05/23 06:00:58;;;;;;;0.30;0.30;;;;;;;18.38;63.78;100556.97;1688451;83;21165;-41
2021/05/23 06:03:25;;;;;;;0.20;0.20;;;;;;;18.42;64.07;100551.83;1687450;84;21444;-45
2021/05/23 06:05:51;;;;;;;0.35;0.35;;;;;;;18.52;64.30;100558.13;1688931;84;21509;-46
2021/05/23 06:08:18;;;;;;;0.72;0.65;;;;;;;18.65;63.92;100552.98;1689069;84;21067;-42
2021/05/23 06:10:45;;;;;;;0.40;0.30;;;;;;;18.77;63.48;100548.97;1681940;83;21071;-45
2021/05/23 06:13:11;;;;;;;1.15;0.88;;;;;;;18.91;63.27;100548.15;1683159;84;21605;-41
2021/05/23 06:15:38;;;;;;;1.50;0.72;;;;;;;19.17;62.83;100547.80;1688860;84;21387;-45
2021/05/23 06:18:05;;;;;;;0.55;0.55;;;;;;;19.64;62.11;100544.28;1689234;83;21329;-45
2021/05/23 06:20:31;;;;;;;0.35;0.35;;;;;;;19.92;61.44;100550.09;1683159;84;21156;-45
2021/05/23 06:22:57;;;;;;;0.40;0.40;;;;;;;19.92;61.44;100550.09;1688997;84;21067;-46
2021/05/23 06:25:24;;;;;;;0.72;0.53;;;;;;;20.09;59.87;100549.70;1685270;83;21711;-45
2021/05/23 06:27:50;;;;;;;2.05;0.60;;;;;;;20.25;59.61;100551.25;1684528;84;21079;-46
2021/05/23 06:30:18;;;;;;;0.57;0.57;;;;;;;20.37;59.20;100556.84;1689027;83;21572;-45
2021/05/23 06:32:44;;;;;;;0.70;0.70;;;;;;;20.44;58.64;100559.86;1688648;84;21042;-45
2021/05/23 06:35:13;;;;;;;0.65;0.65;;;;;;;20.47;58.37;100562.53;1686711;83;21099;-46
2021/05/23 06:37:41;;;;;;;1.47;0.80;;;;;;;20.42;58.07;100564.94;1689107;84;21079;-42
2021/05/23 06:40:09;;;;;;;2.67;1.80;;;;;;;20.37;58.32;100564.58;1688711;84;21079;-45
2021/05/23 06:42:35;;;;;;;0.40;0.40;;;;;;;20.36;57.57;100575.45;1689296;84;21031;-45
2021/05/23 06:45:02;;;;;;;0.85;0.50;;;;;;;20.39;57.46;100583.09;1689047;84;21059;-41
2021/05/23 06:47:28;;;;;;;0.45;0.45;;;;;;;20.46;57.11;100588.09;1685266;84;21096;-44
2021/05/23 06:49:55;;;;;;;0.45;0.45;;;;;;;20.58;56.66;100588.16;1688780;83;21059;-40
2021/05/23 06:52:21;;;;;;;0.17;0.17;;;;;;;20.70;56.66;100587.95;1689181;83;21107;-46
2021/05/23 06:54:48;;;;;;;1.00;0.55;;;;;;;20.79;56.61;100592.80;1692086;83;21552;-45
2021/05/23 06:57:15;;;;;;;1.05;0.65;;;;;;;20.89;55.58;100596.52;1744265;81;21086;-45
2021/05/23 06:59:41;;;;;;;0.20;0.20;;;;;;;20.99;54.99;100598.87;1718180;82;21116;-44
2021/05/23 07:02:08;;;;;;;0.30;0.30;;;;;;;21.06;54.41;100596.88;1715210;83;21041;-46
2021/05/23 07:04:35;;;;;;;0.72;0.30;;;;;;;21.19;53.68;100599.08;1740166;82;21706;-45
2021/05/23 07:07:01;;;;;;;0.35;0.30;;;;;;;21.30;53.97;100612.75;1742333;80;21059;-45
2021/05/23 07:09:27;;;;;;;0.30;0.30;;;;;;;21.46;54.10;100595.64;1747076;81;21059;-41
2021/05/23 07:11:54;;;;;;;0.75;0.65;;;;;;;21.62;53.56;100599.08;1740183;81;21662;-40
2021/05/23 07:14:21;;;;;;;0.80;0.47;;;;;;;21.75;53.28;100600.66;1745172;81;21063;-46
2021/05/23 07:16:48;;;;;;;0.35;0.35;;;;;;;21.87;52.88;100603.41;1738235;82;21066;-42
2021/05/23 07:19:15;;;;;;;1.25;0.47;;;;;;;22.07;52.38;100599.41;1672736;84;21068;-43
2021/05/23 07:21:42;;;;;;;0.50;0.50;;;;;;;22.24;52.39;100600.53;1685080;83;21064;-44
2021/05/23 07:24:09;;;;;;;0.20;0.20;;;;;;;22.49;51.97;100599.02;1687545;84;21612;-41
2021/05/23 07:26:35;;;;;;;1.07;0.40;;;;;;;22.66;51.97;100595.09;1689240;83;21076;-41
2021/05/23 07:29:02;;;;;;;1.62;0.20;;;;;;;22.93;51.24;100590.61;1689459;84;22015;-46
2021/05/23 07:31:31;;;;;;;0.20;0.20;;;;;;;23.14;50.46;100593.93;1688526;84;21067;-43
2021/05/23 07:33:58;;;;;;;0.30;0.30;;;;;;;23.33;50.66;100599.36;1687624;84;21170;-46
2021/05/23 07:36:24;;;;;;;1.05;0.82;;;;;;;23.44;49.91;100598.20;1687935;83;21063;-46
2021/05/23 07:38:51;;;;;;;0.45;0.45;;;;;;;23.40;50.11;100606.50;1689339;83;21043;-42
2021/05/23 07:41:17;;;;;;;0.17;0.17;;;;;;;23.26;50.42;100608.95;1689139;84;21063;-42
2021/05/23 07:43:44;;;;;;;0.30;0.30;;;;;;;23.27;50.72;100600.80;1688771;84;21600;-41
2021/05/23 07:46:10;;;;;;;0.40;0.40;;;;;;;23.27;51.47;100596.61;1686892;83;21115;-46
2021/05/23 07:48:37;;;;;;;0.13;0.10;;;;;;;23.34;51.65;100597.62;1682808;84;21072;-41
2021/05/23 07:51:04;;;;;;;0.50;0.50;;;;;;;23.44;50.57;100598.20;1682037;83;21406;-42
2021/05/23 07:53:34;;;;;;;0.35;0.20;;;;;;;23.65;50.64;100602.08;1685383;84;21091;-45
2021/05/23 07:56:00;;;;;;;0.50;0.50;;;;;;;23.80;50.16;100595.07;1687916;84;21472;-46
2021/05/23 07:58:27;;;;;;;0.35;0.35;;;;;;;23.91;50.45;100602.30;1689027;84;21135;-42
2021/05/23 08:00:54;;;;;;;0.30;0.30;;;;;;;24.03;49.01;100604.95;1688470;83;21073;-41
2021/05/23 08:03:20;;;;;;;0.40;0.40;;;;;;;24.08;45.55;100608.59;1660943;84;21044;-42
2021/05/23 08:05:47;;;;;;;0.93;0.40;;;;;;;23.90;44.54;100614.61;1688799;83;21095;-46
2021/05/23 08:08:14;;;;;;;0.33;0.30;;;;;;;23.90;44.34;100607.64;1688779;84;21059;-47
2021/05/23 08:10:41;;;;;;;0.42;0.33;;;;;;;23.97;45.00;100610.58;1688541;83;21656;-42
2021/05/23 08:13:08;;;;;;;0.45;0.45;;;;;;;24.14;45.35;100612.73;1686977;84;21485;-42
2021/05/23 08:15:34;;;;;;;0.30;0.30;;;;;;;24.29;44.82;100610.43;1686847;83;21603;-42
2021/05/23 08:18:01;;;;;;;0.98;0.60;;;;;;;24.24;43.71;100607.94;1688685;84;21084;-42
2021/05/23 08:20:29;;;;;;;0.30;0.28;;;;;;;24.03;44.31;100608.30;1692960;83;21048;-42
2021/05/23 08:22:55;;;;;;;2.27;1.05;;;;;;;23.73;44.77;100610.85;1688908;84;21665;-46
2021/05/23 08:25:23;;;;;;;0.42;0.30;;;;;;;23.40;45.95;100610.69;1693698;84;21708;-47
2021/05/23 08:27:49;;;;;;;1.87;0.50;;;;;;;23.22;46.47;100608.05;1680308;84;21076;-47
2021/05/23 08:30:16;;;;;;;0.33;0.30;;;;;;;23.21;47.13;100605.05;1693138;83;21493;-46
2021/05/23 08:32:43;;;;;;;0.40;0.40;;;;;;;23.35;47.17;100607.59;1696433;83;21695;-42
2021/05/23 08:35:11;;;;;;;0.20;0.20;;;;;;;23.50;46.36;100610.13;1700694;84;21430;-43
2021/05/23 08:37:38;;;;;;;0.20;0.20;;;;;;;23.53;44.84;100607.19;1689164;84;21660;-45
2021/05/23 08:40:07;;;;;;;0.50;0.50;;;;;;;23.49;44.37;100607.13;1687261;83;21116;-42
2021/05/23 08:42:35;;;;;;;0.30;0.30;;;;;;;23.71;44.85;100602.00;1688696;84;21616;-43
2021/05/23 08:45:04;;;;;;;0.30;0.30;;;;;;;23.95;46.46;100601.77;1669241;84;21495;-47
2021/05/23 08:47:30;;;;;;;0.57;0.17;;;;;;;23.92;46.10;100602.50;1686738;83;21051;-47
2021/05/23 08:49:57;;;;;;;0.50;0.50;;;;;;;23.79;45.33;100606.62;1688744;83;21075;-41
2021/05/23 08:52:23;;;;;;;0.20;0.20;;;;;;;23.71;44.74;100605.59;1689255;83;21055;-46
2021/05/23 08:54:50;;;;;;;0.30;0.30;;;;;;;23.57;45.07;100604.70;1690439;83;21594;-46
2021/05/23 08:57:22;;;;;;;0.40;0.40;;;;;;;23.54;45.40;100604.05;1664884;84;21463;-47
2021/05/23 08:59:49;;;;;;;0.55;0.55;;;;;;;23.58;44.33;100599.94;1689062;84;21055;-43
2021/05/23 09:02:15;;;;;;;0.20;0.10;;;;;;;23.66;44.17;100600.30;1688823;83;21075;-46
2021/05/23 09:04:49;;;;;;;0.17;0.17;;;;;;;23.84;43.54;100595.16;1684903;84;21507;-42
2021/05/23 09:07:17;;;;;;;0.13;0.13;;;;;;;24.06;42.00;100599.78;1689168;84;21123;-41
2021/05/23 09:09:45;;;;;;;0.55;0.42;;;;;;;24.29;40.87;100601.25;1688667;84;21032;-43
2021/05/23 09:12:13;;;;;;;0.10;0.10;;;;;;;24.46;42.38;100610.00;1686944;83;21095;-47
2021/05/23 09:14:47;;;;;;;0.20;0.20;;;;;;;24.60;40.27;100614.23;1683676;84;21159;-47
2021/05/23 09:17:28;;;;;;;0.20;0.20;;;;;;;24.60;37.15;100611.43;1687066;84;21024;-42
2021/05/23 09:19:55;;;;;;;1.55;1.20;;;;;;;24.57;36.89;100603.80;1701522;83;21122;-42
2021/05/23 09:22:25;;;;;;;0.20;0.20;;;;;;;24.67;36.99;100607.38;1661702;84;21042;-41
2021/05/23 09:24:58;;;;;;;0.10;0.10;;;;;;;24.73;38.34;100613.45;1687101;84;21087;-47
2021/05/23 09:27:28;;;;;;;0.20;0.20;;;;;;;24.82;38.91;100619.02;1688896;83;21071;-43
2021/05/23 09:30:13;;;;;;;0.10;0.10;;;;;;;24.94;36.72;100616.63;1687642;84;21628;-42
2021/05/23 09:32:41;;;;;;;0.10;0.10;;;;;;;24.88;35.93;100619.54;1688927;84;21535;-42
2021/05/23 09:35:09;;;;;;;0.20;0.20;;;;;;;24.79;34.17;100621.17;1687700;84;21079;-41
2021/05/23 09:37:35;;;;;;;2.15;0.30;;;;;;;24.66;35.13;100626.73;1693930;84;21028;-42
2021/05/23 09:40:18;;;;;;;0.10;0.10;;;;;;;24.54;35.39;100630.49;1688738;84;21047;-42
2021/05/23 09:42:47;;;;;;;0.33;0.20;;;;;;;24.55;36.13;100616.73;1709365;83;21051;-46
2021/05/23 09:45:14;;;;;;;0.10;0.10;;;;;;;24.74;37.01;100607.50;1699146;84;21015;-41
2021/05/23 09:47:57;;;;;;;0.03;0.03;;;;;;;24.94;35.72;100621.42;1700317;84;21078;-41
2021/05/23 09:50:40;;;;;;;0.10;0.10;;;;;;;24.96;34.92;100621.86;1706756;83;21162;-42
2021/05/23 09:53:23;;;;;;;0.20;0.20;;;;;;;24.93;33.43;100613.63;1689183;84;21076;-47
2021/05/23 09:56:06;;;;;;;0.40;0.40;;;;;;;24.72;33.80;100615.45;1680945;83;21015;-41
2021/05/23 09:58:39;;;;;;;0.10;0.10;;;;;;;24.64;34.42;100610.33;1693572;84;21051;-42
2021/05/23 10:01:09;;;;;;;0.05;0.05;;;;;;;24.63;34.67;100613.51;1705946;84;21532;-46
2021/05/23 10:03:40;;;;;;;0.10;0.10;;;;;;;24.76;35.38;100612.14;1688994;84;21083;-46
2021/05/23 10:06:08;;;;;;;0.10;0.10;;;;;;;24.80;34.02;100612.19;1688759;84;21024;-46
2021/05/23 10:08:35;;;;;;;0.10;0.10;;;;;;;24.71;33.66;100608.26;1689325;84;21059;-46
2021/05/23 10:11:02;;;;;;;0.13;0.13;;;;;;;24.65;34.31;100608.33;1689383;83;21132;-43
2021/05/23 10:13:29;;;;;;;0.13;0.10;;;;;;;24.65;34.04;100601.34;1687230;84;37744;-46
2021/05/23 10:15:56;;;;;;;0.00;0.00;;;;;;;24.68;34.21;100602.02;1688830;83;21565;-46
2021/05/23 10:18:27;;;;;;;0.10;0.10;;;;;;;24.75;35.28;100597.94;1691884;84;21059;-42
2021/05/23 10:20:58;;;;;;;0.33;0.30;;;;;;;24.89;34.36;100605.17;1699456;82;21099;-42
2021/05/23 10:23:36;;;;;;;0.62;0.42;;;;;;;24.98;33.52;100601.34;1701924;84;21137;-41
2021/05/23 10:26:05;;;;;;;0.03;0.03;;;;;;;24.96;33.19;100611.48;1734948;80;21536;-41
2021/05/23 10:28:41;;;;;;;0.10;0.10;;;;;;;24.87;33.22;100604.73;1748623;82;21019;-42
2021/05/23 10:31:07;;;;;;;0.20;0.20;;;;;;;24.81;32.94;100600.66;1736139;80;21048;-46
2021/05/23 10:33:34;;;;;;;0.37;0.30;;;;;;;24.75;33.34;100613.30;1748187;82;21015;-42
2021/05/23 10:36:05;;;;;;;0.30;0.30;;;;;;;24.67;34.20;100598.40;1747852;80;21008;-43
2021/05/23 10:38:30;;;;;;;0.50;0.20;;;;;;;24.79;34.10;100605.80;1748579;81;21549;-46
2021/05/23 10:41:07;;;;;;;0.00;0.00;;;;;;;24.82;34.09;100605.05;1748033;80;21048;-43
2021/05/23 10:43:36;;;;;;;0.17;0.13;;;;;;;24.92;33.37;100602.81;1746615;82;21395;-47
2021/05/23 10:46:10;;;;;;;0.20;0.20;;;;;;;25.09;34.07;100597.52;1747900;80;21022;-47
2021/05/23 10:48:37;;;;;;;0.23;0.23;;;;;;;25.18;33.09;100599.30;1725703;82;21055;-47
2021/05/23 10:51:15;;;;;;;0.10;0.10;;;;;;;25.29;32.96;100602.45;1747828;82;21067;-46
2021/05/23 10:53:42;;;;;;;0.10;0.10;;;;;;;25.39;32.53;100606.59;1748413;81;21071;-42
2021/05/23 10:56:30;;;;;;;0.10;0.10;;;;;;;25.38;31.58;100606.39;1743542;80;20996;-42
2021/05/23 10:59:03;;;;;;;0.10;0.10;;;;;;;25.29;33.06;100606.64;1748171;82;21079;-42
2021/05/23 11:01:45;;;;;;;0.10;0.10;;;;;;;25.16;33.89;100604.42;1746415;80;21671;-43
2021/05/23 11:04:16;;;;;;;0.10;0.10;;;;;;;25.01;32.49;100613.16;1727469;82;21037;-47
2021/05/23 11:06:46;;;;;;;0.23;0.23;;;;;;;24.98;32.33;100607.73;1733532;82;21071;-43
2021/05/23 11:09:23;;;;;;;0.20;0.13;;;;;;;25.06;33.48;100609.45;1743474;82;21033;-42
2021/05/23 11:11:51;;;;;;;1.45;0.13;;;;;;;24.98;33.96;100602.73;1737291;82;21044;-42
2021/05/23 11:14:24;;;;;;;0.10;0.10;;;;;;;24.78;33.16;100606.98;1748165;81;21051;-46
2021/05/23 11:16:55;;;;;;;0.00;0.00;;;;;;;24.76;33.01;100602.36;1736053;82;21020;-42
2021/05/23 11:19:23;;;;;;;0.10;0.10;;;;;;;25.03;32.17;100612.20;1747143;82;21592;-47
2021/05/23 11:21:53;;;;;;;0.33;0.15;;;;;;;25.26;31.99;100604.61;1747308;80;21078;-47
2021/05/23 11:24:33;;;;;;;0.35;0.10;;;;;;;25.46;32.84;100608.70;1746090;82;21064;-42
2021/05/23 11:27:16;;;;;;;0.20;0.20;;;;;;;25.74;32.46;100606.89;1741870;82;21050;-47
2021/05/23 11:29:52;;;;;;;0.00;0.00;;;;;;;26.06;31.11;100608.73;1747283;82;21020;-42
2021/05/23 11:32:19;;;;;;;0.10;0.10;;;;;;;26.15;30.69;100602.25;1738089;82;20992;-42